Ana Sayfa
METAR-TAF:

METAR-TAF

Havaalanları :

Hōfu, Japonya

Enlem: 34-02N, Boylam: 131-33E, yükseklik: 2 m

Güncel hava durumu gözlemi

Rapor saat 23:34 UTC de 9 saat ve 8 dakika önce yapıldı.
Rüzgar kuzeybatıdan 11 kt
Sıcaklık 9°C
Nem 76%
Basınç 1016 hPa
Görüş mesafesi 10 km veya daha fazla
1500 ft yükseklikte az bulutlu
3000 ft yükseklikte parçalı bulutlu

METAR: RJOF 292334Z 31011KT 9999 FEW015 SCT030 09/05 Q1016 RMK 1CU015 3CU030 A3000

Saat: 17:42 (08:42 UTC)


TAF: eksik

4.000'den fazla havaalanı için hava durumu gözlemleri ve tahminleri (METAR ve TAF raporları).

Kullanılabilir istasyonlar harita üzerinde sarı ve kırmızı noktalarla gösterilir.

İstasyonun adını görmek için fareyi noktanın üzerinde gezdirin.

Sonrasında hava gözlem ve tahminlerini görmek için tıklayın.

Haritayı değiştirmek için: yaklaştırmak için siyah artı işaretli yeşil düğmeye ve uzaklaştırmak için de eksi işaretli düğmeye hızla tıklayın; bitişik haritalar için yeşil okları kullanın.


METAR-TAF: